createdAt,value
2022-10-04T00:01:10.219Z,2.78
2022-10-04T00:03:52.472Z,4.50
2022-10-04T00:06:26.083Z,2.97
2022-10-04T00:09:08.635Z,3.08
2022-10-04T00:11:45.415Z,3.03
2022-10-04T00:14:30.667Z,3.70
2022-10-04T00:17:12.159Z,2.38
2022-10-04T00:19:47.811Z,3.75
2022-10-04T00:22:25.803Z,2.63
2022-10-04T00:25:18.252Z,3.55
2022-10-04T00:28:37.111Z,2.42
2022-10-04T00:31:12.674Z,3.20
2022-10-04T00:33:57.977Z,2.97
2022-10-04T00:36:38.239Z,2.65
2022-10-04T00:39:12.087Z,3.67
2022-10-04T00:41:47.490Z,3.25
2022-10-04T00:44:37.757Z,2.78
2022-10-04T00:47:46.865Z,2.90
2022-10-04T00:50:27.778Z,2.88
2022-10-04T00:53:02.867Z,3.38
2022-10-04T00:55:52.806Z,1.73
2022-10-04T00:58:30.461Z,1.95
2022-10-04T01:01:04.708Z,2.08
2022-10-04T01:03:40.952Z,2.75
2022-10-04T01:06:15.262Z,1.55
2022-10-04T01:09:01.362Z,1.52
2022-10-04T01:11:42.968Z,2.47
2022-10-04T01:14:35.550Z,1.75
2022-10-04T01:17:09.594Z,2.45
2022-10-04T01:19:53.734Z,2.17
2022-10-04T01:22:42.690Z,1.90
2022-10-04T01:25:49.362Z,1.83
2022-10-04T01:28:22.087Z,1.88
2022-10-04T01:30:55.431Z,2.25
2022-10-04T01:33:28.186Z,2.00
2022-10-04T01:36:01.334Z,2.22
2022-10-04T01:38:33.916Z,2.63
2022-10-04T01:41:09.437Z,2.15
2022-10-04T01:43:47.118Z,1.13
2022-10-04T01:46:36.514Z,2.28
2022-10-04T01:49:14.193Z,2.75
2022-10-04T01:51:58.190Z,1.92
2022-10-04T01:54:42.386Z,2.70
2022-10-04T01:57:23.356Z,2.65
2022-10-04T02:00:10.706Z,2.20
2022-10-04T02:03:09.098Z,1.60
2022-10-04T02:05:56.126Z,2.08
2022-10-04T02:08:35.978Z,2.05
2022-10-04T02:11:08.550Z,2.55
2022-10-04T02:13:41.982Z,1.60
2022-10-04T02:16:16.080Z,1.88
2022-10-04T02:18:50.993Z,1.55
2022-10-04T02:21:24.586Z,1.50
2022-10-04T02:23:57.361Z,2.53
2022-10-04T02:26:29.985Z,2.53
2022-10-04T02:29:03.473Z,2.17
2022-10-04T02:31:57.690Z,2.75
2022-10-04T02:34:31.441Z,2.60
2022-10-04T02:37:05.865Z,2.08
2022-10-04T02:39:47.882Z,2.95
2022-10-04T02:42:54.657Z,1.38
2022-10-04T02:45:33.473Z,2.72
2022-10-04T02:48:20.432Z,1.65
2022-10-04T02:50:55.723Z,2.30
2022-10-04T02:53:52.365Z,1.98
2022-10-04T02:56:25.766Z,2.45
2022-10-04T02:59:06.530Z,2.40
2022-10-04T03:01:59.666Z,2.13
2022-10-04T03:04:38.317Z,2.17
2022-10-04T03:07:11.546Z,3.03
2022-10-04T03:09:45.461Z,2.22
2022-10-04T03:12:18.532Z,2.42
2022-10-04T03:14:54.097Z,3.15
2022-10-04T03:17:26.841Z,2.97
2022-10-04T03:20:00.172Z,3.08
2022-10-04T03:22:33.135Z,5.45
2022-10-04T03:25:11.206Z,19.80
2022-10-04T03:27:44.756Z,32.35
2022-10-04T03:30:20.738Z,31.25
2022-10-04T03:32:53.673Z,18.15
2022-10-04T03:35:39.406Z,25.02
2022-10-04T03:38:13.093Z,7.68
2022-10-04T03:41:00.157Z,6.97
2022-10-04T03:43:37.649Z,4.28
2022-10-04T03:46:11.223Z,3.78
2022-10-04T03:48:50.278Z,2.15
2022-10-04T03:51:25.844Z,3.47
2022-10-04T03:54:00.963Z,3.05
2022-10-04T03:56:36.817Z,3.20
2022-10-04T03:59:16.545Z,2.88
2022-10-04T04:01:57.109Z,3.57
2022-10-04T04:04:59.412Z,3.75
2022-10-04T04:07:41.604Z,1.85
2022-10-04T04:10:33.497Z,2.47
2022-10-04T04:13:12.064Z,2.50
2022-10-04T04:15:45.704Z,2.42
2022-10-04T04:18:24.184Z,1.80
2022-10-04T04:20:59.424Z,2.28
2022-10-04T04:23:45.085Z,3.47
2022-10-04T04:26:17.737Z,3.72
2022-10-04T04:29:03.765Z,3.78
2022-10-04T04:31:43.860Z,3.85
2022-10-04T04:34:30.069Z,2.45
2022-10-04T04:37:04.673Z,2.90
2022-10-04T04:39:37.539Z,2.83
2022-10-04T04:42:10.765Z,2.97
2022-10-04T04:44:47.959Z,3.25
2022-10-04T04:47:34.034Z,1.95
2022-10-04T04:50:09.089Z,3.15
2022-10-04T04:52:45.913Z,3.80
2022-10-04T04:56:03.509Z,3.30
2022-10-04T04:58:38.945Z,2.30
2022-10-04T05:01:17.592Z,5.68
2022-10-04T05:04:04.361Z,2.97
2022-10-04T05:06:39.935Z,3.75
2022-10-04T05:09:34.768Z,2.92
2022-10-04T05:12:19.636Z,3.38
2022-10-04T05:14:54.806Z,3.55
2022-10-04T05:17:33.476Z,4.50
2022-10-04T05:20:07.919Z,3.47
2022-10-04T05:22:46.377Z,2.58
2022-10-04T05:25:36.987Z,2.55
2022-10-04T05:30:57.056Z,4.63
2022-10-04T05:33:57.720Z,4.57
2022-10-04T05:36:55.684Z,4.88
2022-10-04T05:39:41.212Z,5.32
2022-10-04T05:42:24.520Z,4.85
2022-10-04T05:44:58.503Z,3.85
2022-10-04T05:47:31.611Z,2.63
2022-10-04T05:50:04.700Z,4.30
2022-10-04T05:52:39.944Z,3.53
2022-10-04T05:55:13.073Z,3.58
2022-10-04T05:58:06.090Z,4.72
2022-10-04T06:00:41.526Z,4.63
2022-10-04T06:03:38.508Z,4.07
2022-10-04T06:06:37.225Z,3.47
2022-10-04T06:09:29.099Z,4.85
2022-10-04T06:12:20.168Z,3.38
2022-10-04T06:15:31.837Z,5.75
2022-10-04T06:18:34.499Z,3.95
2022-10-04T06:21:29.267Z,3.60
2022-10-04T06:24:14.214Z,5.80
2022-10-04T06:26:53.874Z,3.35
2022-10-04T06:29:35.284Z,3.33
2022-10-04T06:32:41.345Z,3.78
2022-10-04T06:35:25.834Z,4.93
2022-10-04T06:38:01.672Z,5.35
2022-10-04T06:40:54.403Z,4.05
2022-10-04T06:43:48.256Z,2.38
2022-10-04T06:46:29.247Z,5.05
2022-10-04T06:49:22.793Z,4.03
2022-10-04T06:52:25.935Z,3.10
2022-10-04T06:55:08.698Z,3.58
2022-10-04T06:58:08.698Z,2.83
2022-10-04T07:01:15.142Z,2.72
2022-10-04T07:03:53.308Z,2.65
2022-10-04T07:06:46.334Z,2.20
2022-10-04T07:09:37.277Z,2.42
2022-10-04T07:12:16.574Z,2.25
2022-10-04T07:14:53.901Z,2.53
2022-10-04T07:17:32.868Z,2.28
2022-10-04T07:20:07.983Z,1.88
2022-10-04T07:22:47.671Z,2.58
2022-10-04T07:25:27.415Z,1.17
2022-10-04T07:28:27.775Z,1.42
2022-10-04T07:31:05.421Z,1.77
2022-10-04T07:33:51.710Z,1.70
2022-10-04T07:36:49.121Z,1.83
2022-10-04T07:39:33.802Z,1.75
2022-10-04T07:42:39.510Z,1.73
2022-10-04T07:45:32.822Z,1.30
2022-10-04T07:48:26.051Z,1.83
2022-10-04T07:51:36.662Z,1.30
2022-10-04T07:54:51.600Z,1.20
2022-10-04T07:57:31.090Z,1.38
2022-10-04T08:00:13.259Z,2.10
2022-10-04T08:03:17.683Z,2.65
2022-10-04T08:06:15.175Z,1.90
2022-10-04T08:09:19.505Z,1.52
2022-10-04T08:12:07.410Z,1.85
2022-10-04T08:14:46.915Z,1.77
2022-10-04T08:17:38.062Z,1.30
2022-10-04T08:20:41.006Z,2.30
2022-10-04T08:23:16.454Z,1.27
2022-10-04T08:26:19.902Z,0.90
2022-10-04T08:29:31.930Z,1.10
2022-10-04T08:32:29.985Z,1.10
2022-10-04T08:35:24.301Z,2.15
2022-10-04T08:38:18.426Z,1.10
2022-10-04T08:40:53.711Z,1.23
2022-10-04T08:43:46.422Z,0.73
2022-10-04T08:46:24.741Z,1.05
2022-10-04T08:49:16.593Z,0.68
2022-10-04T08:51:51.830Z,1.38
2022-10-04T08:55:01.822Z,1.70
2022-10-04T08:57:37.174Z,0.77
2022-10-04T09:00:30.429Z,0.80
2022-10-04T09:03:26.830Z,0.63
2022-10-04T09:06:24.619Z,0.80
2022-10-04T09:09:34.915Z,1.27
2022-10-04T09:12:32.459Z,0.57
2022-10-04T09:15:36.172Z,0.73
2022-10-04T09:18:37.401Z,0.57
2022-10-04T09:21:14.237Z,0.70
2022-10-04T09:24:19.401Z,1.20
2022-10-04T09:27:49.971Z,0.80
2022-10-04T09:30:20.842Z,1.00
2022-10-04T09:33:08.049Z,1.05
2022-10-04T09:35:59.129Z,0.73
2022-10-04T09:39:11.437Z,1.45
2022-10-04T09:42:15.415Z,0.88
2022-10-04T09:45:06.370Z,0.90
2022-10-04T09:47:41.169Z,0.90
2022-10-04T09:50:35.707Z,0.70
2022-10-04T09:53:53.047Z,0.90
2022-10-04T09:57:02.876Z,0.85
2022-10-04T09:59:58.364Z,0.85
2022-10-04T10:02:34.397Z,0.77
2022-10-04T10:05:26.978Z,0.82
2022-10-04T10:08:23.853Z,1.15
2022-10-04T10:11:50.428Z,0.77
2022-10-04T10:14:52.996Z,0.88
2022-10-04T10:17:57.588Z,1.48
2022-10-04T10:20:45.478Z,1.00
2022-10-04T10:23:54.886Z,0.80
2022-10-04T10:26:39.815Z,0.90
2022-10-04T10:29:21.468Z,0.80
2022-10-04T10:32:27.581Z,0.65
2022-10-04T10:35:00.504Z,0.63
2022-10-04T10:37:51.456Z,1.05
2022-10-04T10:40:41.057Z,0.75
2022-10-04T10:43:19.217Z,0.87
2022-10-04T10:46:07.810Z,0.90
2022-10-04T10:48:54.396Z,0.82
2022-10-04T10:51:49.239Z,0.60
2022-10-04T10:54:34.160Z,0.60
2022-10-04T10:57:12.760Z,0.95
2022-10-04T11:00:05.900Z,0.52
2022-10-04T11:03:22.744Z,0.70
2022-10-04T11:06:20.329Z,1.20
2022-10-04T11:09:22.432Z,0.80
2022-10-04T11:12:26.652Z,0.80
2022-10-04T11:15:21.252Z,0.82
2022-10-04T11:18:27.225Z,1.10
2022-10-04T11:21:11.604Z,0.60
2022-10-04T11:24:18.221Z,0.65
2022-10-04T11:27:15.105Z,0.68
2022-10-04T11:30:08.644Z,0.60
2022-10-04T11:33:05.716Z,0.65
2022-10-04T11:36:09.389Z,0.50
2022-10-04T11:39:17.080Z,0.80
2022-10-04T11:41:59.980Z,0.65
2022-10-04T11:45:03.448Z,0.77
2022-10-04T11:47:45.480Z,1.25
2022-10-04T11:50:51.340Z,0.60
2022-10-04T11:54:04.207Z,0.95
2022-10-04T11:57:07.109Z,0.98
2022-10-04T12:00:16.803Z,0.65
2022-10-04T12:06:03.524Z,0.90
2022-10-04T12:08:50.516Z,0.68
2022-10-04T12:11:54.540Z,0.82
2022-10-04T12:15:09.873Z,0.68
2022-10-04T12:17:57.084Z,0.80
2022-10-04T12:20:53.299Z,0.82
2022-10-04T12:23:43.755Z,0.63
2022-10-04T12:26:54.963Z,1.25
2022-10-04T12:29:54.199Z,0.20
2022-10-04T12:32:33.679Z,0.50
2022-10-04T12:35:15.090Z,0.60
2022-10-04T12:38:16.848Z,0.50
2022-10-04T12:41:12.249Z,0.50
2022-10-04T12:44:14.743Z,0.50
2022-10-04T12:47:04.679Z,1.05
2022-10-04T12:52:21.846Z,0.50
2022-10-04T12:55:09.829Z,0.70
2022-10-04T12:57:52.351Z,1.20
2022-10-04T13:00:28.900Z,0.88
2022-10-04T13:03:26.549Z,1.50
2022-10-04T13:06:20.789Z,0.65
2022-10-04T13:09:05.963Z,0.60
2022-10-04T13:12:01.010Z,0.60
2022-10-04T13:14:49.300Z,0.75
2022-10-04T13:17:39.254Z,0.52
2022-10-04T13:20:20.931Z,0.65
2022-10-04T13:23:12.395Z,0.60
2022-10-04T13:26:01.219Z,0.73
2022-10-04T13:29:11.569Z,0.55
2022-10-04T13:31:44.515Z,0.70
2022-10-04T13:34:56.082Z,0.50
2022-10-04T13:38:08.110Z,0.40
2022-10-04T13:41:02.876Z,0.65
2022-10-04T13:43:53.946Z,0.63
2022-10-04T13:46:29.330Z,0.63
2022-10-04T13:49:29.461Z,0.50
2022-10-04T13:52:31.243Z,0.90
2022-10-04T13:55:45.923Z,0.47
2022-10-04T13:58:31.989Z,0.70
2022-10-04T14:01:50.468Z,0.40
2022-10-04T14:04:57.160Z,0.70
2022-10-04T14:07:41.805Z,0.52
2022-10-04T14:10:34.880Z,0.32
2022-10-04T14:13:07.542Z,0.35
2022-10-04T14:16:23.540Z,0.55
2022-10-04T14:19:21.308Z,0.40
2022-10-04T14:22:01.147Z,0.45
2022-10-04T14:25:13.910Z,0.40
2022-10-04T14:27:54.586Z,0.60
2022-10-04T14:30:57.893Z,0.50
2022-10-04T14:33:36.771Z,0.43
2022-10-04T14:36:36.531Z,0.40
2022-10-04T14:39:27.957Z,0.60
2022-10-04T14:42:37.075Z,0.70
2022-10-04T14:45:15.528Z,0.40
2022-10-04T14:48:09.679Z,0.35
2022-10-04T14:50:57.805Z,0.70
2022-10-04T14:53:49.848Z,0.90
2022-10-04T14:57:08.915Z,0.45
2022-10-04T15:00:01.499Z,0.70
2022-10-04T15:02:39.272Z,0.57
2022-10-04T15:05:33.092Z,0.60
2022-10-04T15:08:26.136Z,1.17
2022-10-04T15:11:06.893Z,0.98
2022-10-04T15:13:56.173Z,1.05
2022-10-04T15:16:45.642Z,1.33
2022-10-04T15:19:21.582Z,0.82
2022-10-04T15:22:06.331Z,1.38
2022-10-04T15:24:39.598Z,1.27
2022-10-04T15:27:47.355Z,0.90
2022-10-04T15:30:30.731Z,1.00
2022-10-04T15:33:34.433Z,0.90
2022-10-04T15:36:24.880Z,1.30
2022-10-04T15:44:46.141Z,1.60
2022-10-04T15:47:34.101Z,1.33
2022-10-04T15:50:29.391Z,1.40
2022-10-04T15:53:39.591Z,1.08
2022-10-04T15:56:54.677Z,1.30
2022-10-04T16:00:15.705Z,1.17
2022-10-04T16:02:51.037Z,1.33
2022-10-04T16:05:37.658Z,1.20
2022-10-04T16:08:10.604Z,1.38
2022-10-04T16:11:13.780Z,1.80
2022-10-04T16:14:15.815Z,1.25
2022-10-04T16:17:02.324Z,1.27
2022-10-04T16:19:46.916Z,1.63
2022-10-04T16:22:31.550Z,1.40
2022-10-04T16:25:22.589Z,1.52
2022-10-04T16:27:56.169Z,1.55
2022-10-04T16:30:58.465Z,1.88
2022-10-04T16:33:51.483Z,1.60
2022-10-04T16:36:28.490Z,1.80
2022-10-04T16:39:32.019Z,1.98
2022-10-04T16:42:09.933Z,2.33
2022-10-04T16:45:08.775Z,2.75
2022-10-04T16:47:58.738Z,2.97
2022-10-04T16:50:58.465Z,21.88
2022-10-04T16:53:49.350Z,2.97
2022-10-04T16:56:24.602Z,3.08
2022-10-04T16:59:05.494Z,2.20
2022-10-04T17:01:43.583Z,2.90
2022-10-04T17:04:36.798Z,2.30
2022-10-04T17:07:27.284Z,2.60
2022-10-04T17:12:37.370Z,2.67
2022-10-04T17:15:25.208Z,3.35
2022-10-04T17:18:00.867Z,2.65
2022-10-04T17:20:42.661Z,4.35
2022-10-04T17:23:21.787Z,3.35
2022-10-04T17:26:33.335Z,3.53
2022-10-04T17:29:40.250Z,3.30
2022-10-04T17:32:55.093Z,2.95
2022-10-04T17:35:51.860Z,3.80
2022-10-04T17:38:48.455Z,3.13
2022-10-04T17:42:03.293Z,3.63
2022-10-04T17:44:56.659Z,2.97
2022-10-04T17:47:59.923Z,2.97
2022-10-04T17:51:14.146Z,3.15
2022-10-04T17:54:13.274Z,4.57
2022-10-04T17:56:52.553Z,3.67
2022-10-04T17:59:31.232Z,3.38
2022-10-04T18:02:12.093Z,4.60
2022-10-04T18:04:55.858Z,3.83
2022-10-04T18:07:53.963Z,4.47
2022-10-04T18:10:39.373Z,5.05
2022-10-04T18:13:36.226Z,4.55
2022-10-04T18:16:22.604Z,4.32
2022-10-04T18:18:55.589Z,3.78
2022-10-04T18:21:31.415Z,4.88
2022-10-04T18:24:29.800Z,4.28
2022-10-04T18:27:14.649Z,3.45
2022-10-04T18:30:15.845Z,4.07
2022-10-04T18:32:56.568Z,3.55
2022-10-04T18:35:32.989Z,3.45
2022-10-04T18:38:05.759Z,4.60
2022-10-04T18:40:43.067Z,4.60
2022-10-04T18:43:41.866Z,4.22
2022-10-04T18:46:16.100Z,4.57
2022-10-04T18:49:13.411Z,5.70
2022-10-04T18:51:51.944Z,5.28
2022-10-04T18:55:03.308Z,4.68
2022-10-04T18:57:55.909Z,5.22
2022-10-04T19:01:00.934Z,5.50
2022-10-04T19:04:08.679Z,6.18
2022-10-04T19:06:45.022Z,5.60
2022-10-04T19:09:55.125Z,6.35
2022-10-04T19:12:46.306Z,5.78
2022-10-04T19:15:40.272Z,6.55
2022-10-04T19:18:34.813Z,6.88
2022-10-04T19:21:26.779Z,6.38
2022-10-04T19:24:47.887Z,6.80
2022-10-04T19:27:24.367Z,6.65
2022-10-04T19:30:18.949Z,7.22
2022-10-04T19:33:11.742Z,7.03
2022-10-04T19:35:56.730Z,6.95
2022-10-04T19:38:32.378Z,6.28
2022-10-04T19:41:20.579Z,6.75
2022-10-04T19:44:05.635Z,7.65
2022-10-04T19:46:54.089Z,6.10
2022-10-04T19:49:51.255Z,6.05
2022-10-04T19:52:32.862Z,6.20
2022-10-04T19:55:21.839Z,7.85
2022-10-04T19:58:13.164Z,7.43
2022-10-04T20:00:45.848Z,6.55
2022-10-04T20:03:19.158Z,7.35
2022-10-04T20:05:54.322Z,7.18
2022-10-04T20:08:49.072Z,7.50
2022-10-04T20:11:27.227Z,7.68
2022-10-04T20:14:03.022Z,6.70
2022-10-04T20:16:48.670Z,6.88
2022-10-04T20:19:39.116Z,7.85
2022-10-04T20:22:11.775Z,7.90
2022-10-04T20:24:50.849Z,6.93
2022-10-04T20:27:30.438Z,7.68
2022-10-04T20:30:14.316Z,8.15
2022-10-04T20:32:46.791Z,8.13
2022-10-04T20:35:57.216Z,7.15
2022-10-04T20:38:48.454Z,8.75
2022-10-04T20:41:50.037Z,8.27
2022-10-04T20:44:46.810Z,8.52
2022-10-04T20:47:39.832Z,8.38
2022-10-04T20:50:22.388Z,8.82
2022-10-04T20:52:58.574Z,9.50
2022-10-04T20:55:40.289Z,9.95
2022-10-04T20:58:32.894Z,10.50
2022-10-04T21:01:30.951Z,9.15
2022-10-04T21:04:16.253Z,10.82
2022-10-04T21:07:03.012Z,9.75
2022-10-04T21:09:37.530Z,11.32
2022-10-04T21:12:34.888Z,9.90
2022-10-04T21:15:20.896Z,10.45
2022-10-04T21:18:05.122Z,10.70
2022-10-04T21:20:56.170Z,10.93
2022-10-04T21:23:34.122Z,10.40
2022-10-04T21:26:19.968Z,10.95
2022-10-04T21:28:59.611Z,11.45
2022-10-04T21:31:34.077Z,11.55
2022-10-04T21:34:06.745Z,12.60
2022-10-04T21:36:39.928Z,12.63
2022-10-04T21:39:12.711Z,12.18
2022-10-04T21:41:46.103Z,11.98
2022-10-04T21:44:18.924Z,10.77
2022-10-04T21:46:51.827Z,11.50
2022-10-04T21:49:24.685Z,11.55
2022-10-04T21:51:57.700Z,11.70
2022-10-04T21:54:30.484Z,11.73
2022-10-04T21:57:03.567Z,11.25
2022-10-04T21:59:36.358Z,10.77
2022-10-04T22:02:09.354Z,9.85
2022-10-04T22:04:42.032Z,9.02
2022-10-04T22:07:14.847Z,9.45
2022-10-04T22:09:47.508Z,8.63
2022-10-04T22:12:20.439Z,9.52
2022-10-04T22:14:53.065Z,8.20
2022-10-04T22:17:26.039Z,8.60
2022-10-04T22:19:58.754Z,8.23
2022-10-04T22:22:36.355Z,8.70
2022-10-04T22:25:25.885Z,8.23
2022-10-04T22:28:00.366Z,7.25
2022-10-04T22:30:34.514Z,7.22
2022-10-04T22:33:31.422Z,6.90
2022-10-04T22:36:17.650Z,7.57
2022-10-04T22:39:09.719Z,7.40
2022-10-04T22:41:54.430Z,8.20
2022-10-04T22:44:34.178Z,7.57
2022-10-04T22:47:16.305Z,8.27
2022-10-04T22:49:52.626Z,7.43
2022-10-04T22:52:27.243Z,6.88
2022-10-04T22:55:02.298Z,7.43
2022-10-04T22:57:34.915Z,8.13
2022-10-04T23:00:10.934Z,8.77
2022-10-04T23:02:43.706Z,6.95
2022-10-04T23:05:18.996Z,7.70
2022-10-04T23:07:51.815Z,8.63
2022-10-04T23:10:24.740Z,7.22
2022-10-04T23:12:57.281Z,7.38
2022-10-04T23:15:30.073Z,7.60
2022-10-04T23:18:12.391Z,8.00
2022-10-04T23:20:58.068Z,8.38
2022-10-04T23:23:31.485Z,7.93
2022-10-04T23:26:13.507Z,7.47
2022-10-04T23:28:46.421Z,8.13
2022-10-04T23:31:24.790Z,7.55
2022-10-04T23:33:57.599Z,7.88
2022-10-04T23:36:30.805Z,7.05
2022-10-04T23:39:03.503Z,7.82
2022-10-04T23:41:36.350Z,8.68
2022-10-04T23:44:13.369Z,7.57
2022-10-04T23:46:46.584Z,8.30
2022-10-04T23:49:21.441Z,7.03
2022-10-04T23:52:01.543Z,7.85
2022-10-04T23:54:34.210Z,7.75
2022-10-04T23:57:10.450Z,8.25
2022-10-04T23:59:43.085Z,7.65
